Forney's Hourly Summary for Friday, March 17, 2017
Hour Temp
(f)
RH
(%)
Solar Rad.
(MJ/m2)
Rainfall
(in)
Wind
(mph)
3/17/2017 12:00 AM 64 81 0 0 5.76
3/17/2017 1:00 AM 63 83 0 0 5.13
3/17/2017 2:00 AM 63 87 0 0 4.73
3/17/2017 3:00 AM 64 81 0 0 6.72
3/17/2017 4:00 AM 66 79 0 0 8.74
3/17/2017 5:00 AM 66 78 0 0 7.89
3/17/2017 6:00 AM 66 79 0 0 7.09
3/17/2017 7:00 AM 66 76 0 0 6.71
3/17/2017 8:00 AM 66 76 0.03 0 5.61
3/17/2017 9:00 AM 66 77 0.17 0 6.36
3/17/2017 10:00 AM 67 75 0.36 0 7.62
3/17/2017 11:00 AM 68 74 0.55 0 7.59
3/17/2017 12:00 PM 69 72 1.04 0 8.47
3/17/2017 1:00 PM 70 71 1.21 0 8.41
3/17/2017 2:00 PM 70 72 1.03 0 9.17
3/17/2017 3:00 PM 70 73 0.58 0 7.95
3/17/2017 4:00 PM 70 70 0.68 0 5.57
3/17/2017 5:00 PM 73 64 0.81 0 7.44
3/17/2017 6:00 PM 74 60 0.51 0 7.05
3/17/2017 7:00 PM 75 58 0.23 0 5.51
3/17/2017 8:00 PM 73 59 0.03 0 3.57
3/17/2017 9:00 PM 72 62 0 0 0.77
3/17/2017 10:00 PM 70 66 0 0 0.33
3/17/2017 11:00 PM 70 67 0 0 1.91
Data Summary 68 72 7.23 0.00 6.09